• Join FlightAware (Why Join?)
  • Login
  • US Flag 
07:25PM EST


 

Airport Tracker/Info


-or-


 

Live Flight TrackerFlight Track Log ✈ BAW967 ✈ 24-Apr-2013 ✈ EDDH / HAM - EGLL / LHR

Flight Track Log - Related Links

Times and Time Zones

All times are in EDT time to prevent confusion due to time zone crossing. See the BAW967 flight status page for this flight to view local times or setup timezone preferences in your user account.

Time Position Orientation Groundspeed Altitude Reporting Facility
EDT Latitude Longitude Course Direction KTS MPH feet Rate Location/Type
01:04PM 53.6500 9.9790 331° Northwest 147 169 300  Level FlightAware
01:04PM 53.6670 9.9650 334° Northwest 150 173 1,300 1,964 Climbing FlightAware
01:05PM 53.6880 9.9470 333° Northwest 181 208 2,100 1,600 Climbing FlightAware
01:05PM 53.6990 9.9350 327° Northwest 198 228 2,500 2,000 Climbing FlightAware
01:05PM 53.7080 9.9140 306° West 213 245 3,100 2,700 Climbing FlightAware
01:06PM 53.7090 9.8700 272° West 235 270 4,300 3,382 Climbing FlightAware
01:06PM 53.7000 9.8180 254° West 243 280 6,200 4,133 Climbing FlightAware
01:06PM 53.6980 9.7870 264° West 242 278 7,400 4,200 Climbing FlightAware
01:07PM 53.6940 9.7400 262° West 246 283 9,000 3,138 Climbing FlightAware
01:07PM 53.6850 9.6620 259° West 275 316 10,800 2,471 Climbing FlightAware
01:08PM 53.6740 9.5610 260° West 307 353 12,500 2,753 Climbing FlightAware
01:09PM 53.6540 9.4670 250° West 316 364 14,700 3,000 Climbing FlightAware
01:09PM 53.6330 9.3750 249° West 322 371 16,500 2,612 Climbing FlightAware
01:10PM 53.6070 9.2670 248° West 331 381 18,400 2,471 Climbing FlightAware
01:11PM 53.5840 9.1710 248° West 342 394 20,000 2,329 Climbing FlightAware
01:12PM 53.5560 9.0590 247° West 353 406 21,700 2,188 Climbing FlightAware
01:12PM 53.5320 8.9570 248° West 355 409 23,100 1,976 Climbing FlightAware
01:13PM 53.5030 8.8400 247° West 361 415 24,500 1,906 Climbing FlightAware
01:14PM 53.4770 8.7330 248° West 368 423 25,800 1,650 Climbing FlightAware
01:14PM 53.4530 8.6350 248° West 379 436 26,700 1,553 Climbing FlightAware
01:15PM 53.4220 8.5100 247° West 384 442 28,000 1,765 Climbing FlightAware
01:16PM 53.3930 8.3940 247° West 387 445 29,200 1,500 Climbing FlightAware
01:16PM 53.3630 8.2770 247° West 398 458 30,000 1,341 Climbing FlightAware
01:17PM 53.3310 8.1480 247° West 401 461 31,100 1,400 Climbing FlightAware
01:18PM 53.2990 8.0230 247° West 404 465 32,100 1,412 Climbing FlightAware
01:19PM 53.2700 7.9080 247° West 401 461 33,100 1,575 Climbing FlightAware
01:19PM 53.2400 7.7940 246° West 396 456 34,200 1,482 Climbing FlightAware
01:20PM 53.2070 7.6660 247° West 395 455 35,200 1,200 Climbing FlightAware
01:21PM 53.1780 7.5560 246° West 396 456 35,900 1,067 Climbing FlightAware
01:22PM 53.1440 7.4240 247° West 396 456 36,800 1,137 Climbing FlightAware
01:22PM 53.1130 7.3070 246° West 389 448 37,700 800 Climbing FlightAware
01:23PM 53.0780 7.1750 246° West 387 445 38,000 212 Climbing FlightAware
01:24PM 53.0490 7.0640 247° West 387 445 38,000 -1,200 Level FlightAware
01:24PM 53.0227 6.9560 247° West 1 1 36,500  Descending FlightAware UK
01:24PM 53.0160 6.9410 247° West 388 447 38,000  Climbing FlightAware
01:25PM 53.0004 6.8748 247° West 1 1 36,500 -2,368 Descending FlightAware UK
01:25PM 52.9876 6.8260 246° West 1 1 36,500 4,500 Level FlightAware UK
01:25PM 52.9870 6.8320 246° West 388 447 38,000  Climbing FlightAware
01:25PM 52.9722 6.7775 246° West 1 1 36,500 -2,647 Descending FlightAware UK
01:26PM 52.9592 6.7286 246° West 1 1 36,500 3,103 Level FlightAware UK
01:26PM 52.9540 6.7100 246° West 388 447 38,000  Climbing FlightAware
01:26PM 52.9342 6.6307 246° West 1 1 36,500  Descending FlightAware UK
01:27PM 52.9240 6.5980 246° West 388 447 38,000  Climbing FlightAware
01:27PM 52.9119 6.5496 246° West 1 1 36,500 -2,727 Descending FlightAware UK
01:27PM 52.8987 6.5010 246° West 1 1 36,500 3,600 Level FlightAware UK
01:27PM 52.8970 6.4990 246° West 388 447 38,000 1,731 Climbing FlightAware
01:28PM 52.8640 6.3770 246° West 388 447 38,000  Level FlightAware
01:29PM 52.8330 6.2640 246° West 388 447 38,000  Level FlightAware
01:29PM 52.8000 6.1460 245° Southwest 388 447 38,000  Level FlightAware
01:30PM 52.7700 6.0360 246° West 388 447 38,000  Level FlightAware
01:31PM 52.7400 5.9270 246° West 389 448 38,000 -1,200 Level FlightAware
01:31PM 52.7072 5.8217 246° West 446 513 36,500  Descending FlightAware UK
01:31PM 52.7060 5.8080 246° West 390 449 38,000 1,800 Climbing FlightAware
01:32PM 52.6760 5.7000 245° Southwest 391 450 38,000 -1,452 Level FlightAware
01:32PM 52.6589 5.6302 245° Southwest 448 516 36,500 -2,250 Descending FlightAware UK
01:33PM 52.6464 5.5822 247° West 450 518 36,500 3,913 Level FlightAware UK
01:33PM 52.6420 5.5800 247° West 392 451 38,000 2,000 Climbing FlightAware
01:34PM 52.6110 5.4720 245° Southwest 393 452 38,000 -1,636 Level FlightAware
01:34PM 52.5944 5.4174 245° Southwest 448 516 36,500 -2,727 Descending FlightAware UK
01:34PM 52.5816 5.3691 247° West 450 518 36,500 3,600 Level FlightAware UK
01:34PM 52.5810 5.3640 247° West 392 451 38,000  Climbing FlightAware
01:35PM 52.5488 5.2554 247° West 450 518 36,500  Descending FlightAware UK
01:35PM 52.5450 5.2400 247° West 392 451 38,000  Climbing FlightAware
01:35PM 52.5248 5.1747 247° West 450 518 36,500 -2,368 Descending FlightAware UK
01:36PM 52.5113 5.1266 245° Southwest 450 518 36,500 4,500 Level FlightAware UK
01:36PM 52.5160 5.1380 245° Southwest 391 450 38,000 2,143 Climbing FlightAware
01:36PM 52.4860 5.0340 245° Southwest 390 449 38,000 -1,552 Level FlightAware
01:37PM 52.4653 4.9665 245° Southwest 448 516 36,500 -2,500 Descending FlightAware UK
01:37PM 52.4512 4.9186 244° Southwest 448 516 36,500 3,333 Level FlightAware UK
01:37PM 52.4490 4.9070 244° Southwest 388 447 38,000  Climbing FlightAware
01:37PM 52.4323 4.8548 244° Southwest 448 516 36,500 -2,727 Descending FlightAware UK
01:38PM 52.4181 4.8072 244° Southwest 448 516 36,500 3,600 Level FlightAware UK
01:38PM 52.4170 4.7980 244° Southwest 387 445 38,000  Climbing FlightAware
01:38PM 52.3961 4.7288 244° Southwest 446 513 36,500 -2,195 Descending FlightAware UK
01:38PM 52.3823 4.6816 244° Southwest 446 513 36,500 4,091 Level FlightAware UK
01:38PM 52.3820 4.6800 244° Southwest 386 444 38,000 -250 Climbing FlightAware
01:39PM 52.3647 4.6192 244° Southwest 446 513 36,400  Descending FlightAware UK
01:39PM 52.3520 4.5790 244° Southwest 386 444 38,000  Climbing FlightAware
01:39PM 52.3330 4.5096 244° Southwest 446 513 36,400 -2,400 Descending FlightAware UK
01:40PM 52.3190 4.4623 244° Southwest 446 513 36,400 5,333 Level FlightAware UK
01:40PM 52.3220 4.4740 244° Southwest 386 444 38,000  Climbing FlightAware
01:40PM 52.3051 4.4152 244° Southwest 446 513 36,400  Descending FlightAware UK
01:41PM 52.2850 4.3500 244° Southwest 386 444 38,000 143 Climbing FlightAware
01:41PM 52.2715 4.3052 244° Southwest 446 513 36,500 -2,727 Descending FlightAware UK
01:41PM 52.2576 4.2580 244° Southwest 446 513 36,500 3,000 Level FlightAware UK
01:41PM 52.2510 4.2390 244° Southwest 388 447 38,000  Climbing FlightAware
01:42PM 52.2243 4.1480 244° Southwest 448 516 36,500  Descending FlightAware UK
01:42PM 52.2220 4.1400 244° Southwest 389 448 38,000 1,800 Climbing FlightAware
01:43PM 52.1870 4.0240 244° Southwest 389 448 38,000  Level FlightAware
01:43PM 52.1520 3.9100 243° Southwest 388 447 38,000 -1,406 Level FlightAware
01:44PM 52.1341 3.8492 243° Southwest 448 516 36,500  Descending FlightAware UK
01:44PM 52.1200 3.8050 243° Southwest 388 447 38,000  Climbing FlightAware
01:44PM 52.0955 3.7241 243° Southwest 448 516 36,500  Descending FlightAware UK
01:45PM 52.0870 3.6940 243° Southwest 387 445 38,000  Climbing FlightAware
01:45PM 52.0575 3.5995 243° Southwest 448 516 36,500  Descending FlightAware UK
01:45PM 52.0520 3.5810 243° Southwest 386 444 38,000  Climbing FlightAware
01:46PM 52.0239 3.4907 243° Southwest 448 516 36,500  Descending FlightAware UK
01:46PM 52.0190 3.4760 243° Southwest 388 447 38,000  Climbing FlightAware
01:46PM 51.9999 3.4131 243° Southwest 448 516 36,500 -2,571 Descending FlightAware UK
01:47PM 51.9854 3.3665 243° Southwest 448 516 36,500 3,913 Level FlightAware UK
01:47PM 51.9840 3.3620 243° Southwest 387 445 38,000  Climbing FlightAware
01:47PM 51.9662 3.3050 243° Southwest 448 516 36,500  Descending FlightAware UK
01:48PM 51.9480 3.2490 243° Southwest 386 444 38,000  Climbing FlightAware
01:48PM 51.9228 3.1657 243° Southwest 448 516 36,500  Descending FlightAware UK
01:48PM 51.9200 3.1470 243° Southwest 384 442 38,000  Climbing FlightAware
01:49PM 51.9082 3.0656 243° Southwest 448 516 36,500  Descending FlightAware UK
01:49PM 51.9050 3.0330 243° Southwest 382 440 38,000 1,268 Climbing FlightAware
01:50PM 51.8890 2.8820 260° West 383 441 38,000  Level FlightAware
01:51PM 51.8750 2.7510 260° West 383 441 38,000  Level FlightAware
01:51PM 51.8640 2.6500 260° West 383 441 38,000 -92 Level FlightAware
01:52PM 51.8543 2.5568 260° West 384 442 37,900 -2,847 Descending FlightAware ADS-B
01:52PM 51.8454 2.4746 260° West 446 513 35,200 -2,400 Descending FlightAware UK
01:53PM 51.8370 2.4000 260° West 387 445 35,500 -894 Climbing FlightAware
01:53PM 51.8308 2.3429 260° West 386 444 34,500 -5,829 Descending FlightAware ADS-B
01:53PM 51.8246 2.2879 260° West 452 520 32,100 -5,189 Descending FlightAware UK
01:54PM 51.8187 2.2358 260° West 450 518 31,300 -2,500 Descending FlightAware UK
01:54PM 51.8130 2.1843 260° West 446 513 30,600 938 Descending FlightAware UK
01:54PM 51.8100 2.1610 260° West 387 445 31,800 800 Climbing FlightAware
01:54PM 51.8037 2.1009 260° West 384 442 31,000 -2,553 Descending FlightAware ADS-B
01:55PM 51.7940 2.0154 260° West 379 436 29,800 -4,213 Descending FlightAware ADS-B
01:55PM 51.7883 1.9669 260° West 426 490 27,700 -1,895 Descending FlightAware UK
01:56PM 51.7830 1.9190 260° West 372 428 28,600 1,750 Climbing FlightAware
01:56PM 51.7814 1.9044 260° West 371 427 28,400 -6,000 Descending FlightAware ADS-B
01:56PM 51.7733 1.8359 260° West 414 476 26,000 -2,129 Descending FlightAware UK
01:56PM 51.7717 1.8197 260° West 366 421 27,300 -2,000 Climbing FlightAware ADS-B
01:56PM 51.7660 1.7722 260° West 408 470 25,200 -1,935 Descending FlightAware UK
01:57PM 51.7622 1.7384 260° West 361 415 26,300 143 Climbing FlightAware ADS-B
01:57PM 51.7541 1.6643 260° West 357 411 25,300 -4,304 Descending FlightAware ADS-B
01:57PM 51.7508 1.6147 260° West 398 458 23,000 -2,438 Descending FlightAware UK
01:58PM 51.7488 1.5806 260° West 356 410 24,000 -2,400 Climbing FlightAware ADS-B
01:58PM 51.7460 1.5357 260° West 398 458 21,800 -2,400 Descending FlightAware UK
01:58PM 51.7438 1.5019 260° West 354 407 22,800 -2,333 Climbing FlightAware ADS-B
01:58PM 51.7398 1.4419 260° West 396 456 20,400 -2,400 Descending FlightAware UK
01:59PM 51.7382 1.4232 260° West 350 403 21,600 -2,250 Climbing FlightAware ADS-B
01:59PM 51.7350 1.3802 260° West 380 437 19,500 -1,742 Descending FlightAware UK
01:59PM 51.7325 1.3464 260° West 333 383 20,700 652 Climbing FlightAware ADS-B
02:00PM 51.7275 1.2726 264° West 311 358 20,000 -1,594 Descending FlightAware ADS-B
02:00PM 51.7225 1.1993 264° West 303 349 19,000 -3,600 Descending FlightAware ADS-B
02:00PM 51.7195 1.1581 264° West 336 387 17,000 -1,500 Descending FlightAware UK
02:01PM 51.7168 1.1189 264° West 299 344 18,100 -1,429 Climbing FlightAware ADS-B
02:01PM 51.7130 1.0651 264° West 328 377 16,000 -1,500 Descending FlightAware UK
02:01PM 51.7120 1.0473 264° West 296 341 17,300 -1,750 Climbing FlightAware ADS-B
02:02PM 51.7096 1.0129 264° West 324 373 15,300 -1,800 Descending FlightAware UK
02:02PM 51.7079 0.9812 264° West 296 341 16,400 -1,800 Climbing FlightAware ADS-B
02:02PM 51.7057 0.9479 264° West 320 368 14,400 -1,636 Descending FlightAware UK
02:02PM 51.7037 0.9101 264° West 296 341 15,500 1,231 Climbing FlightAware ADS-B
02:03PM 51.6970 0.8658 256° West 289 333 15,200 -692 Descending FlightAware ADS-B
02:03PM 51.6786 0.8087 243° Southwest 269 310 14,900 -610 Descending FlightAware ADS-B
02:04PM 51.6628 0.7607 242° Southwest 255 293 14,600 -789 Descending FlightAware ADS-B
02:04PM 51.6592 0.7437 251° West 252 290 14,400 -1,125 Descending FlightAware ADS-B
02:04PM 51.6584 0.7319 264° West 249 287 14,300 -960 Descending FlightAware ADS-B
02:04PM 51.6577 0.6969 268° West 243 280 14,000 -3,667 Descending FlightAware ADS-B
02:05PM 51.6567 0.6656 268° West 270 311 12,100 -1,400 Descending FlightAware UK
02:05PM 51.6561 0.6429 268° West 242 278 13,300 -1,029 Climbing FlightAware ADS-B
02:05PM 51.6551 0.6013 268° West 268 308 11,500 -529 Descending FlightAware UK
02:05PM 51.6549 0.5822 268° West 244 281 13,000 2,143 Climbing FlightAware ADS-B
02:06PM 51.6538 0.5279 268° West 242 278 13,000 -1,875 Level FlightAware ADS-B
02:06PM 51.6530 0.4936 268° West 270 311 11,500  Descending FlightAware UK
02:06PM 51.6528 0.4733 268° West 239 275 13,000 2,093 Climbing FlightAware ADS-B
02:07PM 51.6516 0.4195 268° West 242 278 13,000  Level FlightAware ADS-B
02:07PM 51.6505 0.3644 268° West 242 278 13,000 -1,698 Level FlightAware ADS-B
02:08PM 51.6495 0.3218 268° West 268 308 11,500  Descending FlightAware UK
02:08PM 51.6492 0.3051 268° West 242 278 13,000  Climbing FlightAware ADS-B
02:08PM 51.6481 0.2570 268° West 268 308 11,500  Descending FlightAware UK
02:09PM 51.6475 0.2230 268° West 242 278 13,000 1,800 Climbing FlightAware ADS-B
02:09PM 51.6463 0.1685 268° West 243 280 13,000  Level FlightAware ADS-B
02:09PM 51.6457 0.1483 267° West 243 280 13,000  Level FlightAware ADS-B
02:10PM 51.6437 0.1338 257° West 244 281 13,000  Level FlightAware ADS-B
02:10PM 51.6412 0.1241 247° West 244 281 13,000  Level FlightAware ADS-B
02:10PM 51.6390 0.1178 241° Southwest 245 282 13,000  Level FlightAware ADS-B
02:10PM 51.6361 0.1113 234° Southwest 246 283 13,000  Level FlightAware ADS-B
02:10PM 51.6312 0.1030 226° Southwest 248 285 13,000  Level FlightAware ADS-B
02:10PM 51.6280 0.0989 219° Southwest 251 289 13,000 -1,091 Level FlightAware ADS-B
02:10PM 51.6204 0.0915 211° Southwest 254 292 12,800 -1,000 Descending FlightAware ADS-B
02:10PM 51.6156 0.0883 202° Southwest 256 295 12,800 -600 Level FlightAware ADS-B
02:10PM 51.6091 0.0859 193° South 258 297 12,700 -1,000 Descending FlightAware ADS-B
02:10PM 51.6010 0.0851 184° South 260 299 12,600 -900 Descending FlightAware ADS-B
02:11PM 51.5861 0.0904 167° South 266 306 12,400 -1,059 Descending FlightAware ADS-B
02:11PM 51.5817 0.0939 154° Southeast 268 308 12,300 -1,500 Descending FlightAware ADS-B
02:11PM 51.5767 0.0991 147° Southeast 272 313 12,200 -1,200 Descending FlightAware ADS-B
02:11PM 51.5712 0.1070 138° Southeast 275 316 12,100 -545 Descending FlightAware ADS-B
02:11PM 51.5673 0.1146 129° Southeast 277 319 12,100 -600 Level FlightAware ADS-B
02:11PM 51.5643 0.1228 121° Southeast 280 322 12,000 -400 Descending FlightAware ADS-B
02:11PM 51.5602 0.1427 108° East 285 328 12,000  Level FlightAware ADS-B
02:11PM 51.5598 0.1627 92° East 290 334 12,000  Level FlightAware ADS-B
02:12PM 51.5625 0.2016 84° East 290 334 12,000 -360 Level FlightAware ADS-B
02:12PM 51.5667 0.2692 84° East 290 334 11,700 -500 Descending FlightAware ADS-B
02:12PM 51.5675 0.2777 81° East 289 333 11,700 -1,000 Level FlightAware ADS-B
02:12PM 51.5705 0.2931 73° East 288 331 11,500 -1,200 Descending FlightAware ADS-B
02:12PM 51.5757 0.3078 60° Northeast 282 325 11,400 -857 Descending FlightAware ADS-B
02:13PM 51.5809 0.3172 48° Northeast 279 321 11,300 -1,091 Descending FlightAware ADS-B
02:13PM 51.5854 0.3231 39° Northeast 277 319 11,200 -750 Descending FlightAware ADS-B
02:13PM 51.5891 0.3268 32° Northeast 274 315 11,200 -667 Level FlightAware ADS-B
02:13PM 51.5948 0.3310 25° Northeast 271 312 11,100 -600 Descending FlightAware ADS-B
02:13PM 51.6015 0.3339 15° North 267 307 11,100  Level FlightAware ADS-B
02:13PM 51.6053 0.3349 North 265 305 11,100 -750 Level FlightAware ADS-B
02:13PM 51.6117 0.3351 North 263 303 11,000 -600 Descending FlightAware ADS-B
02:13PM 51.6170 0.3342 354° North 262 302 11,000  Level FlightAware ADS-B
02:13PM 51.6219 0.3323 347° North 260 299 11,000  Level FlightAware ADS-B
02:13PM 51.6255 0.3304 342° North 259 298 11,000  Level FlightAware ADS-B
02:13PM 51.6323 0.3250 334° Northwest 256 295 11,000  Level FlightAware ADS-B
02:13PM 51.6362 0.3207 325° Northwest 253 291 11,000  Level FlightAware ADS-B
02:13PM 51.6411 0.3134 317° Northwest 251 289 11,000 -545 Level FlightAware ADS-B
02:14PM 51.6453 0.3050 309° West 249 287 10,900 -923 Descending FlightAware ADS-B
02:14PM 51.6488 0.2951 300° West 246 283 10,800 -1,091 Descending FlightAware ADS-B
02:14PM 51.6505 0.2880 291° West 244 281 10,700 -1,200 Descending FlightAware ADS-B
02:14PM 51.6520 0.2761 281° West 240 276 10,600 -857 Descending FlightAware ADS-B
02:14PM 51.6522 0.2619 271° West 238 274 10,500 -947 Descending FlightAware ADS-B
02:14PM 51.6491 0.2100 265° West 232 267 10,000 -1,019 Descending FlightAware ADS-B
02:15PM 51.6468 0.1717 264° West 228 262 9,600 -968 Descending FlightAware ADS-B
02:15PM 51.6459 0.1579 264° West 228 262 9,500 -857 Descending FlightAware ADS-B
02:15PM 51.6445 0.1360 264° West 228 262 9,300 -1,000 Descending FlightAware ADS-B
02:15PM 51.6447 0.1174 271° West 228 262 9,100 -1,111 Descending FlightAware ADS-B
02:16PM 51.6458 0.0918 274° West 228 262 8,800 -938 Descending FlightAware ADS-B
02:16PM 51.6472 0.0648 275° West 228 262 8,600 -1,000 Descending FlightAware ADS-B
02:16PM 51.6484 0.0408 275° West 227 261 8,300 -1,161 Descending FlightAware ADS-B
02:16PM 51.6497 0.0117 274° West 225 259 8,000 -1,059 Descending FlightAware ADS-B
02:17PM 51.6507 -0.0164 273° West 222 255 7,700 -938 Descending FlightAware ADS-B
02:17PM 51.6514 -0.0411 273° West 222 255 7,500 -800 Descending FlightAware ADS-B
02:17PM 51.6520 -0.0665 272° West 223 257 7,300 -581 Descending FlightAware ADS-B
02:17PM 51.6525 -0.0915 272° West 224 258 7,200 -429 Descending FlightAware ADS-B
02:18PM 51.6528 -0.1121 271° West 223 257 7,100 -545 Descending FlightAware ADS-B
02:18PM 51.6531 -0.1292 272° West 222 255 7,000 -400 Descending FlightAware ADS-B
02:18PM 51.6529 -0.1365 267° West 223 257 7,000  Level FlightAware ADS-B
02:18PM 51.6519 -0.1443 258° West 224 258 7,000 -545 Level FlightAware ADS-B
02:18PM 51.6491 -0.1548 247° West 228 262 6,900 -1,000 Descending FlightAware ADS-B
02:18PM 51.6463 -0.1608 233° Southwest 230 265 6,800 -1,500 Descending FlightAware ADS-B
02:18PM 51.6433 -0.1654 224° Southwest 233 268 6,700 -1,500 Descending FlightAware ADS-B
02:18PM 51.6394 -0.1698 215° Southwest 237 273 6,600 -750 Descending FlightAware ADS-B
02:18PM 51.6365 -0.1722 207° Southwest 240 276 6,600 -857 Level FlightAware ADS-B
02:18PM 51.6327 -0.1745 201° Southwest 243 280 6,500 -1,333 Descending FlightAware ADS-B
02:19PM 51.6267 -0.1763 191° South 247 284 6,400 -1,333 Descending FlightAware ADS-B
02:19PM 51.6214 -0.1765 181° South 251 289 6,300 -1,500 Descending FlightAware ADS-B
02:19PM 51.6172 -0.1756 173° South 253 291 6,200 -1,333 Descending FlightAware ADS-B
02:19PM 51.6117 -0.1732 165° South 259 298 6,100 -1,200 Descending FlightAware ADS-B
02:19PM 51.6059 -0.1687 154° Southeast 262 302 6,000 -667 Descending FlightAware ADS-B
02:19PM 51.6022 -0.1648 147° Southeast 264 304 6,000 -750 Level FlightAware ADS-B
02:19PM 51.5982 -0.1590 138° Southeast 266 306 5,900 -857 Descending FlightAware ADS-B
02:19PM 51.5958 -0.1545 131° Southeast 268 308 5,900  Level FlightAware ADS-B
02:19PM 51.5933 -0.1490 126° Southeast 270 311 5,900  Level FlightAware ADS-B
02:19PM 51.5913 -0.1433 120° Southeast 271 312 5,900 -857 Level FlightAware ADS-B
02:19PM 51.5892 -0.1357 114° Southeast 272 313 5,800 -706 Descending FlightAware ADS-B
02:19PM 51.5836 -0.1106 110° East 272 313 5,700 -387 Descending FlightAware ADS-B
02:20PM 51.5764 -0.0775 109° East 271 312 5,600 -529 Descending FlightAware ADS-B
02:20PM 51.5698 -0.0469 109° East 269 310 5,400 -545 Descending FlightAware ADS-B
02:20PM 51.5670 -0.0354 111° Southeast 269 310 5,400 -462 Level FlightAware ADS-B
02:20PM 51.5625 -0.0232 121° Southeast 267 307 5,300 -667 Descending FlightAware ADS-B
02:20PM 51.5534 -0.0094 137° Southeast 258 297 5,200 -706 Descending FlightAware ADS-B
02:20PM 51.5477 -0.0045 152° Southeast 250 288 5,100 -500 Descending FlightAware ADS-B
02:21PM 51.5408 -0.0010 163° South 242 278 5,100  Level FlightAware ADS-B
02:21PM 51.5371 0.0002 169° South 239 275 5,100 -333 Level FlightAware ADS-B
02:21PM 51.5209 0.0037 172° South 228 262 5,000 -621 Descending FlightAware ADS-B
02:21PM 51.5068 0.0065 173° South 218 251 4,800 -545 Descending FlightAware ADS-B
02:21PM 51.4993 0.0058 183° South 209 241 4,800 -462 Level FlightAware ADS-B
02:21PM 51.4948 0.0036 197° South 201 231 4,700 -750 Descending FlightAware ADS-B
02:21PM 51.4922 0.0013 208° Southwest 194 223 4,700  Level FlightAware ADS-B
02:21PM 51.4897 -0.0016 216° Southwest 190 219 4,700  Level FlightAware ADS-B
02:21PM 51.4876 -0.0050 225° Southwest 187 215 4,700 -750 Level FlightAware ADS-B
02:22PM 51.4852 -0.0096 230° Southwest 184 212 4,600 -750 Descending FlightAware ADS-B
02:22PM 51.4836 -0.0130 233° Southwest 183 211 4,600 -333 Level FlightAware ADS-B
02:22PM 51.4765 -0.0300 236° Southwest 181 208 4,500 -444 Descending FlightAware ADS-B
02:22PM 51.4712 -0.0436 238° Southwest 180 207 4,400 -706 Descending FlightAware ADS-B
02:22PM 51.4695 -0.0499 246° West 178 205 4,300 -667 Descending FlightAware ADS-B
02:22PM 51.4683 -0.0552 250° West 177 204 4,300 -462 Level FlightAware ADS-B
02:22PM 51.4669 -0.0658 258° West 176 203 4,200 -462 Descending FlightAware ADS-B
02:22PM 51.4665 -0.0712 263° West 174 200 4,200 -522 Level FlightAware ADS-B
02:23PM 51.4657 -0.0954 267° West 175 201 4,000 -706 Descending FlightAware ADS-B
02:23PM 51.4656 -0.1149 270° West 173 199 3,800 -1,000 Descending FlightAware ADS-B
02:23PM 51.4656 -0.1347 270° West 174 200 3,500 -774 Descending FlightAware ADS-B
02:24PM 51.4656 -0.1536 270° West 161 185 3,400 -968 Descending FlightAware ADS-B
02:24PM 51.4656 -0.1721 270° West 158 182 3,000 -1,313 Descending FlightAware ADS-B
02:24PM 51.4655 -0.1913 270° West 154 177 2,700 -882 Descending FlightAware ADS-B
02:24PM 51.4655 -0.2109 270° West 154 177 2,500 -545 Descending FlightAware ADS-B
02:25PM 51.4655 -0.2287 270° West 157 181 2,400 -706 Descending FlightAware ADS-B
02:25PM 51.4655 -0.2499 270° West 160 184 2,100 -1,000 Descending FlightAware ADS-B
02:25PM 51.4655 -0.2715 270° West 166 191 1,800 -892 Descending FlightAware ADS-B
02:26PM 51.4650 -0.3360 269° West 163 188 1,000 -837 Descending FlightAware
02:27PM 51.4650 -0.3690 270° West 127 146 600 -720 Descending FlightAware
02:27PM 51.4650 -0.3860 270° West 123 142 400 -450 Descending FlightAware
02:27PM 51.4650 -0.4000 270° West 121 139 300 -300 Descending FlightAware
02:30PM 51.4775 -0.4614 288° West  Level Estimated
02:31PM 51.4775 -0.4614 90° East  Level Estimated
02:32PM 51.4775 -0.4614 90° East  Level Estimated
02:33PM 51.4775 -0.4614 90° East  Level Estimated
02:34PM 51.4775 -0.4614 90° East  Level Estimated
02:35PM 51.4775 -0.4614 90° East  Level Estimated
02:36PM 51.4775 -0.4614 90° East  Level Estimated
02:37PM 51.4775 -0.4614 90° East  Level Estimated
02:38PM 51.4775 -0.4614 90° East  Level Estimated